sensor_id;sensor_type;location;lat;lon;timestamp;P1;durP1;ratioP1;P2;durP2;ratioP2
56629;SDS011;42502;40.732;-74.254;2023-04-09T00:01:34;2.30;;;0.32;;
56629;SDS011;42502;40.732;-74.254;2023-04-09T00:03:35;5.00;;;0.47;;
56629;SDS011;42502;40.732;-74.254;2023-04-09T00:05:37;1.55;;;0.43;;
56629;SDS011;42502;40.732;-74.254;2023-04-09T00:07:39;3.78;;;0.70;;
56629;SDS011;42502;40.732;-74.254;2023-04-09T00:09:40;3.78;;;0.70;;
56629;SDS011;42502;40.732;-74.254;2023-04-09T00:11:40;2.67;;;0.40;;
56629;SDS011;42502;40.732;-74.254;2023-04-09T00:13:41;0.60;;;0.30;;
56629;SDS011;42502;40.732;-74.254;2023-04-09T00:15:42;1.10;;;0.30;;
56629;SDS011;42502;40.732;-74.254;2023-04-09T00:17:44;1.75;;;0.50;;
56629;SDS011;42502;40.732;-74.254;2023-04-09T00:19:45;1.17;;;0.40;;
56629;SDS011;42502;40.732;-74.254;2023-04-09T00:21:46;1.83;;;0.30;;
56629;SDS011;42502;40.732;-74.254;2023-04-09T00:23:47;1.48;;;0.40;;
56629;SDS011;42502;40.732;-74.254;2023-04-09T00:25:48;1.60;;;0.30;;
56629;SDS011;42502;40.732;-74.254;2023-04-09T00:27:49;1.92;;;0.32;;
56629;SDS011;42502;40.732;-74.254;2023-04-09T00:29:52;1.85;;;0.45;;
56629;SDS011;42502;40.732;-74.254;2023-04-09T00:31:56;1.58;;;0.50;;
56629;SDS011;42502;40.732;-74.254;2023-04-09T00:33:57;1.77;;;0.43;;
56629;SDS011;42502;40.732;-74.254;2023-04-09T00:35:58;2.05;;;0.30;;
56629;SDS011;42502;40.732;-74.254;2023-04-09T00:37:59;4.15;;;0.60;;
56629;SDS011;42502;40.732;-74.254;2023-04-09T00:40:00;2.15;;;0.50;;
56629;SDS011;42502;40.732;-74.254;2023-04-09T00:42:03;2.63;;;0.45;;
56629;SDS011;42502;40.732;-74.254;2023-04-09T00:44:04;0.57;;;0.35;;
56629;SDS011;42502;40.732;-74.254;2023-04-09T00:46:05;1.15;;;0.40;;
56629;SDS011;42502;40.732;-74.254;2023-04-09T00:48:06;0.95;;;0.30;;
56629;SDS011;42502;40.732;-74.254;2023-04-09T00:50:07;3.40;;;0.35;;
56629;SDS011;42502;40.732;-74.254;2023-04-09T00:52:09;0.68;;;0.30;;
56629;SDS011;42502;40.732;-74.254;2023-04-09T00:54:13;2.65;;;0.50;;
56629;SDS011;42502;40.732;-74.254;2023-04-09T00:56:15;0.80;;;0.32;;
56629;SDS011;42502;40.732;-74.254;2023-04-09T00:58:21;0.73;;;0.40;;
56629;SDS011;42502;40.732;-74.254;2023-04-09T01:00:22;0.60;;;0.40;;
56629;SDS011;42502;40.732;-74.254;2023-04-09T01:02:27;0.40;;;0.30;;
56629;SDS011;42502;40.732;-74.254;2023-04-09T01:04:27;1.88;;;0.40;;
56629;SDS011;42502;40.732;-74.254;2023-04-09T01:08:47;1.60;;;0.40;;
56629;SDS011;42502;40.732;-74.254;2023-04-09T01:10:58;0.73;;;0.35;;
56629;SDS011;42502;40.732;-74.254;2023-04-09T01:13:12;2.05;;;0.40;;
56629;SDS011;42502;40.732;-74.254;2023-04-09T01:15:19;1.20;;;0.40;;
56629;SDS011;42502;40.732;-74.254;2023-04-09T01:17:37;1.13;;;0.50;;
56629;SDS011;42502;40.732;-74.254;2023-04-09T01:19:50;0.55;;;0.30;;
56629;SDS011;42502;40.732;-74.254;2023-04-09T01:21:59;0.80;;;0.50;;
56629;SDS011;42502;40.732;-74.254;2023-04-09T01:30:33;0.45;;;0.30;;
56629;SDS011;42502;40.732;-74.254;2023-04-09T01:32:35;1.05;;;0.40;;
56629;SDS011;42502;40.732;-74.254;2023-04-09T01:34:38;0.70;;;0.45;;
56629;SDS011;42502;40.732;-74.254;2023-04-09T01:36:46;0.77;;;0.40;;
56629;SDS011;42502;40.732;-74.254;2023-04-09T01:38:51;0.47;;;0.38;;
56629;SDS011;42502;40.732;-74.254;2023-04-09T01:40:53;0.30;;;0.30;;
56629;SDS011;42502;40.732;-74.254;2023-04-09T01:42:55;0.38;;;0.30;;
56629;SDS011;42502;40.732;-74.254;2023-04-09T01:44:58;1.45;;;0.35;;
56629;SDS011;42502;40.732;-74.254;2023-04-09T01:47:01;0.38;;;0.30;;
56629;SDS011;42502;40.732;-74.254;2023-04-09T01:49:06;0.43;;;0.30;;
56629;SDS011;42502;40.732;-74.254;2023-04-09T01:51:08;0.98;;;0.30;;
56629;SDS011;42502;40.732;-74.254;2023-04-09T01:53:09;0.40;;;0.38;;
56629;SDS011;42502;40.732;-74.254;2023-04-09T01:55:10;0.55;;;0.30;;
56629;SDS011;42502;40.732;-74.254;2023-04-09T01:57:11;0.52;;;0.30;;
56629;SDS011;42502;40.732;-74.254;2023-04-09T01:59:12;0.80;;;0.50;;
56629;SDS011;42502;40.732;-74.254;2023-04-09T02:01:19;0.75;;;0.30;;
56629;SDS011;42502;40.732;-74.254;2023-04-09T02:03:33;1.70;;;0.30;;
56629;SDS011;42502;40.732;-74.254;2023-04-09T02:05:48;0.47;;;0.20;;
56629;SDS011;42502;40.732;-74.254;2023-04-09T02:10:17;0.60;;;0.30;;
56629;SDS011;42502;40.732;-74.254;2023-04-09T02:12:21;1.67;;;0.30;;
56629;SDS011;42502;40.732;-74.254;2023-04-09T02:14:24;3.20;;;0.32;;
56629;SDS011;42502;40.732;-74.254;2023-04-09T02:16:26;2.50;;;0.40;;
56629;SDS011;42502;40.732;-74.254;2023-04-09T02:18:31;1.67;;;0.40;;
56629;SDS011;42502;40.732;-74.254;2023-04-09T02:20:32;4.20;;;0.38;;
56629;SDS011;42502;40.732;-74.254;2023-04-09T02:22:33;1.65;;;0.30;;
56629;SDS011;42502;40.732;-74.254;2023-04-09T02:24:36;0.63;;;0.30;;
56629;SDS011;42502;40.732;-74.254;2023-04-09T02:26:37;3.33;;;0.32;;
56629;SDS011;42502;40.732;-74.254;2023-04-09T02:28:40;1.00;;;0.30;;
56629;SDS011;42502;40.732;-74.254;2023-04-09T02:30:41;3.55;;;0.75;;
56629;SDS011;42502;40.732;-74.254;2023-04-09T02:32:42;3.97;;;0.30;;
56629;SDS011;42502;40.732;-74.254;2023-04-09T02:34:43;2.15;;;0.43;;
56629;SDS011;42502;40.732;-74.254;2023-04-09T02:36:44;4.50;;;0.40;;
56629;SDS011;42502;40.732;-74.254;2023-04-09T02:38:45;3.45;;;0.40;;
56629;SDS011;42502;40.732;-74.254;2023-04-09T02:40:46;2.63;;;0.40;;
56629;SDS011;42502;40.732;-74.254;2023-04-09T02:42:47;3.10;;;0.40;;
56629;SDS011;42502;40.732;-74.254;2023-04-09T02:44:48;2.22;;;0.47;;
56629;SDS011;42502;40.732;-74.254;2023-04-09T02:46:49;0.90;;;0.32;;
56629;SDS011;42502;40.732;-74.254;2023-04-09T02:48:51;3.65;;;0.30;;
56629;SDS011;42502;40.732;-74.254;2023-04-09T02:50:52;1.23;;;0.40;;
56629;SDS011;42502;40.732;-74.254;2023-04-09T02:52:53;2.78;;;0.40;;
56629;SDS011;42502;40.732;-74.254;2023-04-09T02:54:54;2.45;;;0.40;;
56629;SDS011;42502;40.732;-74.254;2023-04-09T02:56:54;3.13;;;0.40;;
56629;SDS011;42502;40.732;-74.254;2023-04-09T02:58:55;1.38;;;0.38;;
56629;SDS011;42502;40.732;-74.254;2023-04-09T03:00:56;3.92;;;0.40;;
56629;SDS011;42502;40.732;-74.254;2023-04-09T03:02:57;3.35;;;0.40;;
56629;SDS011;42502;40.732;-74.254;2023-04-09T03:04:58;3.17;;;0.40;;
56629;SDS011;42502;40.732;-74.254;2023-04-09T03:06:59;1.23;;;0.30;;
56629;SDS011;42502;40.732;-74.254;2023-04-09T03:08:59;1.40;;;0.40;;
56629;SDS011;42502;40.732;-74.254;2023-04-09T03:11:03;3.42;;;0.30;;
56629;SDS011;42502;40.732;-74.254;2023-04-09T03:13:04;6.05;;;0.80;;
56629;SDS011;42502;40.732;-74.254;2023-04-09T03:15:08;3.58;;;0.50;;
56629;SDS011;42502;40.732;-74.254;2023-04-09T03:17:09;3.25;;;0.50;;
56629;SDS011;42502;40.732;-74.254;2023-04-09T03:19:10;1.58;;;0.32;;
56629;SDS011;42502;40.732;-74.254;2023-04-09T03:21:10;5.65;;;0.50;;
56629;SDS011;42502;40.732;-74.254;2023-04-09T03:23:11;2.63;;;0.50;;
56629;SDS011;42502;40.732;-74.254;2023-04-09T03:25:12;3.05;;;0.45;;
56629;SDS011;42502;40.732;-74.254;2023-04-09T03:27:13;3.30;;;0.40;;
56629;SDS011;42502;40.732;-74.254;2023-04-09T03:29:14;4.40;;;0.60;;
56629;SDS011;42502;40.732;-74.254;2023-04-09T03:31:15;5.93;;;0.52;;
56629;SDS011;42502;40.732;-74.254;2023-04-09T03:33:21;7.28;;;0.50;;
56629;SDS011;42502;40.732;-74.254;2023-04-09T03:35:22;2.65;;;0.50;;
56629;SDS011;42502;40.732;-74.254;2023-04-09T03:37:23;2.33;;;0.57;;
56629;SDS011;42502;40.732;-74.254;2023-04-09T03:39:24;1.27;;;0.43;;
56629;SDS011;42502;40.732;-74.254;2023-04-09T03:41:29;3.97;;;0.40;;
56629;SDS011;42502;40.732;-74.254;2023-04-09T03:43:30;4.40;;;0.45;;
56629;SDS011;42502;40.732;-74.254;2023-04-09T03:45:31;3.08;;;0.43;;
56629;SDS011;42502;40.732;-74.254;2023-04-09T03:47:35;3.97;;;0.52;;
56629;SDS011;42502;40.732;-74.254;2023-04-09T03:49:36;5.00;;;1.10;;
56629;SDS011;42502;40.732;-74.254;2023-04-09T03:51:37;4.00;;;0.50;;
56629;SDS011;42502;40.732;-74.254;2023-04-09T03:53:41;4.63;;;0.50;;
56629;SDS011;42502;40.732;-74.254;2023-04-09T03:55:41;3.58;;;0.50;;
56629;SDS011;42502;40.732;-74.254;2023-04-09T03:57:42;3.38;;;0.50;;
56629;SDS011;42502;40.732;-74.254;2023-04-09T03:59:43;2.63;;;0.50;;
56629;SDS011;42502;40.732;-74.254;2023-04-09T04:01:44;2.35;;;0.50;;
56629;SDS011;42502;40.732;-74.254;2023-04-09T04:03:45;3.55;;;0.50;;
56629;SDS011;42502;40.732;-74.254;2023-04-09T04:05:46;4.03;;;0.70;;
56629;SDS011;42502;40.732;-74.254;2023-04-09T04:07:47;0.90;;;0.50;;
56629;SDS011;42502;40.732;-74.254;2023-04-09T04:09:50;1.65;;;0.50;;
56629;SDS011;42502;40.732;-74.254;2023-04-09T04:11:51;5.32;;;0.60;;
56629;SDS011;42502;40.732;-74.254;2023-04-09T04:13:52;1.38;;;0.70;;
56629;SDS011;42502;40.732;-74.254;2023-04-09T04:15:54;1.40;;;0.32;;
56629;SDS011;42502;40.732;-74.254;2023-04-09T04:17:55;0.68;;;0.40;;
56629;SDS011;42502;40.732;-74.254;2023-04-09T04:19:59;3.67;;;0.40;;
56629;SDS011;42502;40.732;-74.254;2023-04-09T04:22:00;3.70;;;0.52;;
56629;SDS011;42502;40.732;-74.254;2023-04-09T04:24:01;3.20;;;0.50;;
56629;SDS011;42502;40.732;-74.254;2023-04-09T04:26:05;1.75;;;0.50;;
56629;SDS011;42502;40.732;-74.254;2023-04-09T04:28:09;2.70;;;0.70;;
56629;SDS011;42502;40.732;-74.254;2023-04-09T04:30:10;2.95;;;0.60;;
56629;SDS011;42502;40.732;-74.254;2023-04-09T04:32:10;3.85;;;0.40;;
56629;SDS011;42502;40.732;-74.254;2023-04-09T04:34:11;2.40;;;0.50;;
56629;SDS011;42502;40.732;-74.254;2023-04-09T04:36:15;2.30;;;0.40;;
56629;SDS011;42502;40.732;-74.254;2023-04-09T04:38:16;3.08;;;0.50;;
56629;SDS011;42502;40.732;-74.254;2023-04-09T04:40:17;1.83;;;0.40;;
56629;SDS011;42502;40.732;-74.254;2023-04-09T04:42:18;1.73;;;0.57;;
56629;SDS011;42502;40.732;-74.254;2023-04-09T04:44:18;1.40;;;0.40;;
56629;SDS011;42502;40.732;-74.254;2023-04-09T04:46:19;1.08;;;0.50;;
56629;SDS011;42502;40.732;-74.254;2023-04-09T04:48:20;1.38;;;0.40;;
56629;SDS011;42502;40.732;-74.254;2023-04-09T04:50:21;3.42;;;0.30;;
56629;SDS011;42502;40.732;-74.254;2023-04-09T04:52:22;1.02;;;0.47;;
56629;SDS011;42502;40.732;-74.254;2023-04-09T04:54:23;0.70;;;0.30;;
56629;SDS011;42502;40.732;-74.254;2023-04-09T04:56:24;0.90;;;0.30;;
56629;SDS011;42502;40.732;-74.254;2023-04-09T04:58:25;0.80;;;0.40;;
56629;SDS011;42502;40.732;-74.254;2023-04-09T05:00:26;1.02;;;0.40;;
56629;SDS011;42502;40.732;-74.254;2023-04-09T05:02:27;1.48;;;0.50;;
56629;SDS011;42502;40.732;-74.254;2023-04-09T05:04:30;2.00;;;0.40;;
56629;SDS011;42502;40.732;-74.254;2023-04-09T05:06:34;1.00;;;0.40;;
56629;SDS011;42502;40.732;-74.254;2023-04-09T05:08:35;1.60;;;0.40;;
56629;SDS011;42502;40.732;-74.254;2023-04-09T05:10:39;1.50;;;0.30;;
56629;SDS011;42502;40.732;-74.254;2023-04-09T05:12:40;0.55;;;0.40;;
56629;SDS011;42502;40.732;-74.254;2023-04-09T05:14:41;2.35;;;0.50;;
56629;SDS011;42502;40.732;-74.254;2023-04-09T05:16:45;1.15;;;0.40;;
56629;SDS011;42502;40.732;-74.254;2023-04-09T05:18:46;1.33;;;0.40;;
56629;SDS011;42502;40.732;-74.254;2023-04-09T05:20:47;1.25;;;0.40;;
56629;SDS011;42502;40.732;-74.254;2023-04-09T05:22:48;1.10;;;0.35;;
56629;SDS011;42502;40.732;-74.254;2023-04-09T05:24:48;0.70;;;0.40;;
56629;SDS011;42502;40.732;-74.254;2023-04-09T05:26:49;0.80;;;0.40;;
56629;SDS011;42502;40.732;-74.254;2023-04-09T05:28:50;1.83;;;0.57;;
56629;SDS011;42502;40.732;-74.254;2023-04-09T05:30:51;1.40;;;0.30;;
56629;SDS011;42502;40.732;-74.254;2023-04-09T05:32:52;2.58;;;0.40;;
56629;SDS011;42502;40.732;-74.254;2023-04-09T05:34:53;0.52;;;0.40;;
56629;SDS011;42502;40.732;-74.254;2023-04-09T05:36:53;0.40;;;0.30;;
56629;SDS011;42502;40.732;-74.254;2023-04-09T05:38:54;0.60;;;0.38;;
56629;SDS011;42502;40.732;-74.254;2023-04-09T05:40:55;0.43;;;0.30;;
56629;SDS011;42502;40.732;-74.254;2023-04-09T05:42:56;1.23;;;0.40;;
56629;SDS011;42502;40.732;-74.254;2023-04-09T05:44:57;2.70;;;0.30;;
56629;SDS011;42502;40.732;-74.254;2023-04-09T05:46:58;0.80;;;0.40;;
56629;SDS011;42502;40.732;-74.254;2023-04-09T05:48:58;1.63;;;0.40;;
56629;SDS011;42502;40.732;-74.254;2023-04-09T05:50:59;0.88;;;0.40;;
56629;SDS011;42502;40.732;-74.254;2023-04-09T05:53:00;0.73;;;0.30;;
56629;SDS011;42502;40.732;-74.254;2023-04-09T05:55:01;0.88;;;0.40;;
56629;SDS011;42502;40.732;-74.254;2023-04-09T05:57:05;1.95;;;0.35;;
56629;SDS011;42502;40.732;-74.254;2023-04-09T05:59:09;0.60;;;0.30;;
56629;SDS011;42502;40.732;-74.254;2023-04-09T06:01:13;0.70;;;0.22;;
56629;SDS011;42502;40.732;-74.254;2023-04-09T06:03:17;0.57;;;0.30;;
56629;SDS011;42502;40.732;-74.254;2023-04-09T06:05:18;2.75;;;0.40;;
56629;SDS011;42502;40.732;-74.254;2023-04-09T06:07:19;0.52;;;0.30;;
56629;SDS011;42502;40.732;-74.254;2023-04-09T06:09:20;2.95;;;0.40;;
56629;SDS011;42502;40.732;-74.254;2023-04-09T06:11:21;1.00;;;0.30;;
56629;SDS011;42502;40.732;-74.254;2023-04-09T06:13:22;0.30;;;0.20;;
56629;SDS011;42502;40.732;-74.254;2023-04-09T06:15:22;0.40;;;0.25;;
56629;SDS011;42502;40.732;-74.254;2023-04-09T06:17:27;0.70;;;0.32;;
56629;SDS011;42502;40.732;-74.254;2023-04-09T06:19:28;1.70;;;0.30;;
56629;SDS011;42502;40.732;-74.254;2023-04-09T06:21:30;1.52;;;0.30;;
56629;SDS011;42502;40.732;-74.254;2023-04-09T06:23:32;1.85;;;0.30;;
56629;SDS011;42502;40.732;-74.254;2023-04-09T06:25:35;1.52;;;0.30;;
56629;SDS011;42502;40.732;-74.254;2023-04-09T06:27:38;0.40;;;0.30;;
56629;SDS011;42502;40.732;-74.254;2023-04-09T06:29:39;0.55;;;0.30;;
56629;SDS011;42502;40.732;-74.254;2023-04-09T06:31:40;0.45;;;0.30;;
56629;SDS011;42502;40.732;-74.254;2023-04-09T06:33:43;0.50;;;0.30;;
56629;SDS011;42502;40.732;-74.254;2023-04-09T06:35:44;0.57;;;0.30;;
56629;SDS011;42502;40.732;-74.254;2023-04-09T06:37:46;0.57;;;0.30;;
56629;SDS011;42502;40.732;-74.254;2023-04-09T06:39:46;0.40;;;0.17;;
56629;SDS011;42502;40.732;-74.254;2023-04-09T06:41:47;1.60;;;0.40;;
56629;SDS011;42502;40.732;-74.254;2023-04-09T06:43:48;0.47;;;0.22;;
56629;SDS011;42502;40.732;-74.254;2023-04-09T06:45:49;1.25;;;0.30;;
56629;SDS011;42502;40.732;-74.254;2023-04-09T06:47:54;1.50;;;0.30;;
56629;SDS011;42502;40.732;-74.254;2023-04-09T06:49:55;0.45;;;0.30;;
56629;SDS011;42502;40.732;-74.254;2023-04-09T06:52:02;0.85;;;0.40;;
56629;SDS011;42502;40.732;-74.254;2023-04-09T06:54:04;0.22;;;0.20;;
56629;SDS011;42502;40.732;-74.254;2023-04-09T06:56:04;1.25;;;0.30;;
56629;SDS011;42502;40.732;-74.254;2023-04-09T06:58:08;0.50;;;0.40;;
56629;SDS011;42502;40.732;-74.254;2023-04-09T07:00:09;0.28;;;0.20;;
56629;SDS011;42502;40.732;-74.254;2023-04-09T07:02:10;0.20;;;0.20;;
56629;SDS011;42502;40.732;-74.254;2023-04-09T07:04:11;0.65;;;0.32;;
56629;SDS011;42502;40.732;-74.254;2023-04-09T07:06:12;0.40;;;0.30;;
56629;SDS011;42502;40.732;-74.254;2023-04-09T07:08:13;0.80;;;0.32;;
56629;SDS011;42502;40.732;-74.254;2023-04-09T07:10:14;0.50;;;0.30;;
56629;SDS011;42502;40.732;-74.254;2023-04-09T07:12:25;1.02;;;0.30;;
56629;SDS011;42502;40.732;-74.254;2023-04-09T07:14:32;1.40;;;0.30;;
56629;SDS011;42502;40.732;-74.254;2023-04-09T07:16:33;1.00;;;0.40;;
56629;SDS011;42502;40.732;-74.254;2023-04-09T07:18:34;1.52;;;0.30;;
56629;SDS011;42502;40.732;-74.254;2023-04-09T07:20:35;0.50;;;0.30;;
56629;SDS011;42502;40.732;-74.254;2023-04-09T07:22:36;0.32;;;0.20;;
56629;SDS011;42502;40.732;-74.254;2023-04-09T07:24:36;0.80;;;0.30;;
56629;SDS011;42502;40.732;-74.254;2023-04-09T07:26:37;0.65;;;0.30;;
56629;SDS011;42502;40.732;-74.254;2023-04-09T07:28:38;0.82;;;0.40;;
56629;SDS011;42502;40.732;-74.254;2023-04-09T07:30:39;2.38;;;0.30;;
56629;SDS011;42502;40.732;-74.254;2023-04-09T07:32:40;0.40;;;0.30;;
56629;SDS011;42502;40.732;-74.254;2023-04-09T07:34:42;0.55;;;0.30;;
56629;SDS011;42502;40.732;-74.254;2023-04-09T07:36:50;0.95;;;0.30;;
56629;SDS011;42502;40.732;-74.254;2023-04-09T07:38:51;0.30;;;0.20;;
56629;SDS011;42502;40.732;-74.254;2023-04-09T07:40:52;1.58;;;0.30;;
56629;SDS011;42502;40.732;-74.254;2023-04-09T07:42:52;0.40;;;0.30;;
56629;SDS011;42502;40.732;-74.254;2023-04-09T07:44:54;0.40;;;0.20;;
56629;SDS011;42502;40.732;-74.254;2023-04-09T07:46:58;0.40;;;0.30;;
56629;SDS011;42502;40.732;-74.254;2023-04-09T07:49:00;0.57;;;0.30;;
56629;SDS011;42502;40.732;-74.254;2023-04-09T07:51:00;0.88;;;0.30;;
56629;SDS011;42502;40.732;-74.254;2023-04-09T07:53:01;0.40;;;0.20;;
56629;SDS011;42502;40.732;-74.254;2023-04-09T07:55:05;0.50;;;0.30;;
56629;SDS011;42502;40.732;-74.254;2023-04-09T07:57:06;0.70;;;0.22;;
56629;SDS011;42502;40.732;-74.254;2023-04-09T07:59:07;0.40;;;0.38;;
56629;SDS011;42502;40.732;-74.254;2023-04-09T08:01:08;0.40;;;0.30;;
56629;SDS011;42502;40.732;-74.254;2023-04-09T08:03:09;0.73;;;0.28;;
56629;SDS011;42502;40.732;-74.254;2023-04-09T08:05:09;1.20;;;0.30;;
56629;SDS011;42502;40.732;-74.254;2023-04-09T08:07:10;0.20;;;0.20;;
56629;SDS011;42502;40.732;-74.254;2023-04-09T08:09:11;0.50;;;0.28;;
56629;SDS011;42502;40.732;-74.254;2023-04-09T08:11:12;0.47;;;0.30;;
56629;SDS011;42502;40.732;-74.254;2023-04-09T08:13:17;0.60;;;0.40;;
56629;SDS011;42502;40.732;-74.254;2023-04-09T08:15:18;0.70;;;0.30;;
56629;SDS011;42502;40.732;-74.254;2023-04-09T08:17:19;0.57;;;0.30;;
56629;SDS011;42502;40.732;-74.254;2023-04-09T08:19:21;1.60;;;0.25;;
56629;SDS011;42502;40.732;-74.254;2023-04-09T08:21:22;0.32;;;0.30;;
56629;SDS011;42502;40.732;-74.254;2023-04-09T08:23:23;0.93;;;0.30;;
56629;SDS011;42502;40.732;-74.254;2023-04-09T08:25:24;2.72;;;0.47;;
56629;SDS011;42502;40.732;-74.254;2023-04-09T08:27:25;0.30;;;0.30;;
56629;SDS011;42502;40.732;-74.254;2023-04-09T08:29:26;0.47;;;0.30;;
56629;SDS011;42502;40.732;-74.254;2023-04-09T08:31:27;0.85;;;0.30;;
56629;SDS011;42502;40.732;-74.254;2023-04-09T08:33:28;0.40;;;0.30;;
56629;SDS011;42502;40.732;-74.254;2023-04-09T08:35:30;0.30;;;0.28;;
56629;SDS011;42502;40.732;-74.254;2023-04-09T08:37:30;0.40;;;0.30;;
56629;SDS011;42502;40.732;-74.254;2023-04-09T08:39:31;0.43;;;0.30;;
56629;SDS011;42502;40.732;-74.254;2023-04-09T08:41:32;0.65;;;0.20;;
56629;SDS011;42502;40.732;-74.254;2023-04-09T08:43:37;1.15;;;0.30;;
56629;SDS011;42502;40.732;-74.254;2023-04-09T08:45:39;0.45;;;0.30;;
56629;SDS011;42502;40.732;-74.254;2023-04-09T08:47:40;0.30;;;0.30;;
56629;SDS011;42502;40.732;-74.254;2023-04-09T08:49:42;1.42;;;0.30;;
56629;SDS011;42502;40.732;-74.254;2023-04-09T08:51:47;0.30;;;0.30;;
56629;SDS011;42502;40.732;-74.254;2023-04-09T08:55:56;0.60;;;0.20;;
56629;SDS011;42502;40.732;-74.254;2023-04-09T08:57:59;0.50;;;0.30;;
56629;SDS011;42502;40.732;-74.254;2023-04-09T09:00:03;0.60;;;0.40;;
56629;SDS011;42502;40.732;-74.254;2023-04-09T09:02:08;0.50;;;0.30;;
56629;SDS011;42502;40.732;-74.254;2023-04-09T09:04:10;1.67;;;0.40;;
56629;SDS011;42502;40.732;-74.254;2023-04-09T09:06:19;0.60;;;0.43;;
56629;SDS011;42502;40.732;-74.254;2023-04-09T09:08:22;0.32;;;0.30;;
56629;SDS011;42502;40.732;-74.254;2023-04-09T09:10:34;1.63;;;0.30;;
56629;SDS011;42502;40.732;-74.254;2023-04-09T09:12:40;0.22;;;0.20;;
56629;SDS011;42502;40.732;-74.254;2023-04-09T09:14:42;1.42;;;0.30;;
56629;SDS011;42502;40.732;-74.254;2023-04-09T09:16:43;0.52;;;0.43;;
56629;SDS011;42502;40.732;-74.254;2023-04-09T09:19:03;1.38;;;0.40;;
56629;SDS011;42502;40.732;-74.254;2023-04-09T09:21:13;0.50;;;0.35;;
56629;SDS011;42502;40.732;-74.254;2023-04-09T09:23:15;1.17;;;0.30;;
56629;SDS011;42502;40.732;-74.254;2023-04-09T09:25:16;0.30;;;0.30;;
56629;SDS011;42502;40.732;-74.254;2023-04-09T09:27:35;0.70;;;0.20;;
56629;SDS011;42502;40.732;-74.254;2023-04-09T09:29:42;1.33;;;0.30;;
56629;SDS011;42502;40.732;-74.254;2023-04-09T09:31:47;0.68;;;0.30;;
56629;SDS011;42502;40.732;-74.254;2023-04-09T09:35:53;0.30;;;0.30;;
56629;SDS011;42502;40.732;-74.254;2023-04-09T09:38:02;2.13;;;0.40;;
56629;SDS011;42502;40.732;-74.254;2023-04-09T09:40:03;0.70;;;0.30;;
56629;SDS011;42502;40.732;-74.254;2023-04-09T09:42:07;0.47;;;0.30;;
56629;SDS011;42502;40.732;-74.254;2023-04-09T09:44:09;0.63;;;0.20;;
56629;SDS011;42502;40.732;-74.254;2023-04-09T09:46:11;0.30;;;0.30;;
56629;SDS011;42502;40.732;-74.254;2023-04-09T09:48:11;0.73;;;0.38;;
56629;SDS011;42502;40.732;-74.254;2023-04-09T09:50:13;0.68;;;0.30;;
56629;SDS011;42502;40.732;-74.254;2023-04-09T09:52:19;0.47;;;0.30;;
56629;SDS011;42502;40.732;-74.254;2023-04-09T09:54:27;0.30;;;0.30;;
56629;SDS011;42502;40.732;-74.254;2023-04-09T09:56:37;0.40;;;0.30;;
56629;SDS011;42502;40.732;-74.254;2023-04-09T09:58:52;0.90;;;0.47;;
56629;SDS011;42502;40.732;-74.254;2023-04-09T10:01:06;0.80;;;0.30;;
56629;SDS011;42502;40.732;-74.254;2023-04-09T10:03:19;1.30;;;0.30;;
56629;SDS011;42502;40.732;-74.254;2023-04-09T10:05:22;0.30;;;0.30;;
56629;SDS011;42502;40.732;-74.254;2023-04-09T10:07:26;0.63;;;0.30;;
56629;SDS011;42502;40.732;-74.254;2023-04-09T10:09:29;1.23;;;0.30;;
56629;SDS011;42502;40.732;-74.254;2023-04-09T10:11:34;0.40;;;0.30;;
56629;SDS011;42502;40.732;-74.254;2023-04-09T10:13:38;3.13;;;0.30;;
56629;SDS011;42502;40.732;-74.254;2023-04-09T10:15:45;0.25;;;0.20;;
56629;SDS011;42502;40.732;-74.254;2023-04-09T10:17:46;0.20;;;0.20;;
56629;SDS011;42502;40.732;-74.254;2023-04-09T10:19:55;0.20;;;0.20;;
56629;SDS011;42502;40.732;-74.254;2023-04-09T10:22:20;0.20;;;0.20;;
56629;SDS011;42502;40.732;-74.254;2023-04-09T10:24:25;0.63;;;0.28;;
56629;SDS011;42502;40.732;-74.254;2023-04-09T10:26:26;0.25;;;0.25;;
56629;SDS011;42502;40.732;-74.254;2023-04-09T10:28:27;0.63;;;0.30;;
56629;SDS011;42502;40.732;-74.254;2023-04-09T10:30:37;4.03;;;0.50;;
56629;SDS011;42502;40.732;-74.254;2023-04-09T10:32:38;1.65;;;0.40;;
56629;SDS011;42502;40.732;-74.254;2023-04-09T10:34:43;2.67;;;0.30;;
56629;SDS011;42502;40.732;-74.254;2023-04-09T10:36:44;0.50;;;0.30;;
56629;SDS011;42502;40.732;-74.254;2023-04-09T10:38:50;2.47;;;0.32;;
56629;SDS011;42502;40.732;-74.254;2023-04-09T10:40:51;2.42;;;0.40;;
56629;SDS011;42502;40.732;-74.254;2023-04-09T10:42:52;2.25;;;0.30;;
56629;SDS011;42502;40.732;-74.254;2023-04-09T10:47:14;1.20;;;0.50;;
56629;SDS011;42502;40.732;-74.254;2023-04-09T10:49:36;2.03;;;0.30;;
56629;SDS011;42502;40.732;-74.254;2023-04-09T10:51:38;1.92;;;0.40;;
56629;SDS011;42502;40.732;-74.254;2023-04-09T10:53:39;0.82;;;0.30;;
56629;SDS011;42502;40.732;-74.254;2023-04-09T10:55:40;2.60;;;0.40;;
56629;SDS011;42502;40.732;-74.254;2023-04-09T10:57:48;1.52;;;0.30;;
56629;SDS011;42502;40.732;-74.254;2023-04-09T10:59:52;1.23;;;0.47;;
56629;SDS011;42502;40.732;-74.254;2023-04-09T11:01:54;1.63;;;0.50;;
56629;SDS011;42502;40.732;-74.254;2023-04-09T11:04:06;9.65;;;0.63;;
56629;SDS011;42502;40.732;-74.254;2023-04-09T11:06:20;7.53;;;0.40;;
56629;SDS011;42502;40.732;-74.254;2023-04-09T11:08:21;3.92;;;0.40;;
56629;SDS011;42502;40.732;-74.254;2023-04-09T11:10:22;7.70;;;0.60;;
56629;SDS011;42502;40.732;-74.254;2023-04-09T11:12:23;4.72;;;0.45;;
56629;SDS011;42502;40.732;-74.254;2023-04-09T11:14:24;11.57;;;0.50;;
56629;SDS011;42502;40.732;-74.254;2023-04-09T11:16:27;7.00;;;0.40;;
56629;SDS011;42502;40.732;-74.254;2023-04-09T11:18:32;9.43;;;0.60;;
56629;SDS011;42502;40.732;-74.254;2023-04-09T11:20:34;8.60;;;0.40;;
56629;SDS011;42502;40.732;-74.254;2023-04-09T11:22:38;6.85;;;0.60;;
56629;SDS011;42502;40.732;-74.254;2023-04-09T11:24:39;2.90;;;0.30;;
56629;SDS011;42502;40.732;-74.254;2023-04-09T11:26:46;5.38;;;0.50;;
56629;SDS011;42502;40.732;-74.254;2023-04-09T11:28:48;9.40;;;0.57;;
56629;SDS011;42502;40.732;-74.254;2023-04-09T11:30:54;6.85;;;0.75;;
56629;SDS011;42502;40.732;-74.254;2023-04-09T11:32:55;5.28;;;0.50;;
56629;SDS011;42502;40.732;-74.254;2023-04-09T11:34:56;11.02;;;0.70;;
56629;SDS011;42502;40.732;-74.254;2023-04-09T11:36:57;9.05;;;0.50;;
56629;SDS011;42502;40.732;-74.254;2023-04-09T11:38:58;7.80;;;0.52;;
56629;SDS011;42502;40.732;-74.254;2023-04-09T11:41:03;5.97;;;0.52;;
56629;SDS011;42502;40.732;-74.254;2023-04-09T11:43:06;1.85;;;0.60;;
56629;SDS011;42502;40.732;-74.254;2023-04-09T11:45:08;4.13;;;0.60;;
56629;SDS011;42502;40.732;-74.254;2023-04-09T11:47:10;5.55;;;0.63;;
56629;SDS011;42502;40.732;-74.254;2023-04-09T11:49:12;3.85;;;0.60;;
56629;SDS011;42502;40.732;-74.254;2023-04-09T11:51:14;5.85;;;0.70;;
56629;SDS011;42502;40.732;-74.254;2023-04-09T11:53:19;8.02;;;0.85;;
56629;SDS011;42502;40.732;-74.254;2023-04-09T11:57:44;5.13;;;0.70;;
56629;SDS011;42502;40.732;-74.254;2023-04-09T11:59:46;5.72;;;0.85;;
56629;SDS011;42502;40.732;-74.254;2023-04-09T12:01:50;7.45;;;0.80;;
56629;SDS011;42502;40.732;-74.254;2023-04-09T12:03:54;3.45;;;0.60;;
56629;SDS011;42502;40.732;-74.254;2023-04-09T12:05:55;6.03;;;0.68;;
56629;SDS011;42502;40.732;-74.254;2023-04-09T12:07:59;3.60;;;0.70;;
56629;SDS011;42502;40.732;-74.254;2023-04-09T12:10:02;4.10;;;0.80;;
56629;SDS011;42502;40.732;-74.254;2023-04-09T12:12:07;5.97;;;0.75;;
56629;SDS011;42502;40.732;-74.254;2023-04-09T12:14:14;4.60;;;0.60;;
56629;SDS011;42502;40.732;-74.254;2023-04-09T12:16:18;4.57;;;0.68;;
56629;SDS011;42502;40.732;-74.254;2023-04-09T12:18:22;4.47;;;0.70;;